createdAt,value
2019-06-20T00:00:49.212Z,11.30
2019-06-20T00:03:17.992Z,12.15
2019-06-20T00:05:48.447Z,11.88
2019-06-20T00:10:46.949Z,12.80
2019-06-20T00:15:43.899Z,11.15
2019-06-20T00:18:12.811Z,12.07
2019-06-20T00:20:43.019Z,11.73
2019-06-20T00:23:12.033Z,12.35
2019-06-20T00:25:41.099Z,12.35
2019-06-20T00:28:09.863Z,12.25
2019-06-20T00:30:38.645Z,11.50
2019-06-20T00:33:10.141Z,12.28
2019-06-20T00:35:38.919Z,12.18
2019-06-20T00:38:07.820Z,12.28
2019-06-20T00:40:38.029Z,12.23
2019-06-20T00:43:17.005Z,12.40
2019-06-20T00:48:05.641Z,11.73
2019-06-20T00:50:34.510Z,12.15
2019-06-20T00:53:03.417Z,12.00
2019-06-20T00:55:33.909Z,11.68
2019-06-20T00:58:02.841Z,12.28
2019-06-20T01:00:31.930Z,11.12
2019-06-20T01:03:00.809Z,12.70
2019-06-20T01:05:29.728Z,11.70
2019-06-20T01:07:58.590Z,11.93
2019-06-20T01:10:27.389Z,12.25
2019-06-20T01:13:15.641Z,11.63
2019-06-20T01:15:44.569Z,12.05
2019-06-20T01:18:13.641Z,11.88
2019-06-20T01:20:42.389Z,11.75
2019-06-20T01:23:11.298Z,12.00
2019-06-20T01:25:41.919Z,12.50
2019-06-20T01:28:12.459Z,11.85
2019-06-20T01:30:41.289Z,12.07
2019-06-20T01:33:11.569Z,11.80
2019-06-20T01:35:40.569Z,12.13
2019-06-20T01:38:09.459Z,12.45
2019-06-20T01:40:38.240Z,12.37
2019-06-20T01:43:07.051Z,12.23
2019-06-20T01:45:35.804Z,11.38
2019-06-20T01:48:04.609Z,12.30
2019-06-20T01:50:33.389Z,12.20
2019-06-20T01:53:03.930Z,12.00
2019-06-20T01:58:00.889Z,11.57
2019-06-20T02:00:35.100Z,12.37
2019-06-20T02:03:04.015Z,12.18
2019-06-20T02:05:32.990Z,11.85
2019-06-20T02:08:02.007Z,11.85
2019-06-20T02:10:30.686Z,12.43
2019-06-20T02:12:59.451Z,12.23
2019-06-20T02:15:28.250Z,11.90
2019-06-20T02:17:58.671Z,12.05
2019-06-20T02:23:01.723Z,12.05
2019-06-20T02:25:30.770Z,12.00
2019-06-20T02:27:59.692Z,12.28
2019-06-20T02:30:28.650Z,12.28
2019-06-20T02:32:57.449Z,12.47
2019-06-20T02:35:26.200Z,11.90
2019-06-20T02:37:56.270Z,11.97
2019-06-20T02:40:25.259Z,11.78
2019-06-20T02:42:54.121Z,11.90
2019-06-20T02:45:23.013Z,12.18
2019-06-20T02:47:51.780Z,11.93
2019-06-20T02:50:20.641Z,12.07
2019-06-20T02:52:49.309Z,12.03
2019-06-20T02:55:18.190Z,12.00
2019-06-20T02:57:48.610Z,11.85
2019-06-20T03:02:46.993Z,11.70
2019-06-20T03:05:15.793Z,12.47
2019-06-20T03:07:44.790Z,12.85
2019-06-20T03:10:15.620Z,11.85
2019-06-20T03:12:44.508Z,11.60
2019-06-20T03:15:13.250Z,12.10
2019-06-20T03:17:42.190Z,12.33
2019-06-20T03:20:12.089Z,12.50
2019-06-20T03:22:43.760Z,11.95
2019-06-20T03:25:17.239Z,12.35
2019-06-20T03:27:46.039Z,11.60
2019-06-20T03:30:16.574Z,12.18
2019-06-20T03:32:45.460Z,11.40
2019-06-20T03:35:14.240Z,12.10
2019-06-20T03:37:42.982Z,12.30
2019-06-20T03:40:11.821Z,11.95
2019-06-20T03:42:42.353Z,11.57
2019-06-20T03:47:40.654Z,11.97
2019-06-20T03:50:10.465Z,12.00
2019-06-20T03:52:39.179Z,12.28
2019-06-20T03:55:08.052Z,11.63
2019-06-20T03:57:36.929Z,12.00
2019-06-20T04:00:07.881Z,11.50
2019-06-20T04:02:36.871Z,11.80
2019-06-20T04:05:05.901Z,11.93
2019-06-20T04:07:35.051Z,12.45
2019-06-20T04:10:03.843Z,11.08
2019-06-20T04:12:34.170Z,11.68
2019-06-20T04:15:17.954Z,11.80
2019-06-20T04:17:33.479Z,11.65
2019-06-20T04:20:05.048Z,11.63
2019-06-20T04:22:33.829Z,11.85
2019-06-20T04:25:02.709Z,11.75
2019-06-20T04:27:31.481Z,11.90
2019-06-20T04:30:00.416Z,12.05
2019-06-20T04:32:29.114Z,12.40
2019-06-20T04:34:57.972Z,12.13
2019-06-20T04:37:28.389Z,12.13
2019-06-20T04:42:25.150Z,12.07
2019-06-20T04:44:55.411Z,11.95
2019-06-20T04:47:24.269Z,12.15
2019-06-20T04:49:53.059Z,12.30
2019-06-20T04:52:23.498Z,12.37
2019-06-20T04:54:52.319Z,11.60
2019-06-20T04:57:21.143Z,12.63
2019-06-20T04:59:51.410Z,11.85
2019-06-20T05:02:21.800Z,11.85
2019-06-20T05:04:50.702Z,11.70
2019-06-20T05:07:19.889Z,12.05
2019-06-20T05:09:48.589Z,12.00
2019-06-20T05:12:17.569Z,11.68
2019-06-20T05:14:53.839Z,12.15
2019-06-20T05:17:22.630Z,11.63
2019-06-20T05:19:51.450Z,12.58
2019-06-20T05:22:20.211Z,11.83
2019-06-20T05:24:49.061Z,11.73
2019-06-20T05:27:18.137Z,12.13
2019-06-20T05:29:46.979Z,11.83
2019-06-20T05:32:15.859Z,11.65
2019-06-20T05:34:46.229Z,11.73
2019-06-20T05:37:15.184Z,12.10
2019-06-20T05:39:44.860Z,12.05
2019-06-20T05:42:15.219Z,12.10
2019-06-20T05:44:44.030Z,12.18
2019-06-20T05:47:13.940Z,11.85
2019-06-20T05:49:43.120Z,11.53
2019-06-20T05:52:12.019Z,11.15
2019-06-20T05:54:40.829Z,11.70
2019-06-20T05:57:11.329Z,11.28
2019-06-20T06:02:08.182Z,12.10
2019-06-20T06:04:36.990Z,11.30
2019-06-20T06:07:05.969Z,12.20
2019-06-20T06:09:36.410Z,11.85
2019-06-20T06:14:35.620Z,11.28
2019-06-20T06:17:04.518Z,11.43
2019-06-20T06:19:33.290Z,11.53
2019-06-20T06:22:03.756Z,11.45
2019-06-20T06:24:32.557Z,11.40
2019-06-20T06:27:01.400Z,11.03
2019-06-20T06:29:30.180Z,11.33
2019-06-20T06:31:58.859Z,11.80
2019-06-20T06:34:27.650Z,11.15
2019-06-20T06:36:56.469Z,11.10
2019-06-20T06:39:25.247Z,11.57
2019-06-20T06:41:54.061Z,12.28
2019-06-20T06:44:23.029Z,11.57
2019-06-20T06:46:57.555Z,11.35
2019-06-20T06:49:23.881Z,19.07
2019-06-20T06:54:22.012Z,12.95
2019-06-20T06:56:50.880Z,16.32
2019-06-20T06:59:19.751Z,18.05
2019-06-20T07:01:48.653Z,18.23
2019-06-20T07:04:17.421Z,15.93
2019-06-20T07:06:46.419Z,15.48
2019-06-20T07:09:15.149Z,16.25
2019-06-20T07:11:44.107Z,15.40
2019-06-20T07:14:12.898Z,16.17
2019-06-20T07:16:41.566Z,14.87
2019-06-20T07:19:10.490Z,15.00
2019-06-20T07:21:39.397Z,14.87
2019-06-20T07:24:09.911Z,15.08
2019-06-20T07:26:38.988Z,14.58
2019-06-20T07:29:07.887Z,13.93
2019-06-20T07:31:36.649Z,14.05
2019-06-20T07:34:05.450Z,14.63
2019-06-20T07:36:35.759Z,14.65
2019-06-20T07:41:34.269Z,13.88
2019-06-20T07:44:03.067Z,14.50
2019-06-20T07:46:31.940Z,14.45
2019-06-20T07:49:00.863Z,14.53
2019-06-20T07:51:29.637Z,14.23
2019-06-20T07:53:58.410Z,14.18
2019-06-20T07:56:27.119Z,14.40
2019-06-20T07:58:56.065Z,14.07
2019-06-20T08:01:24.901Z,14.83
2019-06-20T08:03:53.777Z,14.63
2019-06-20T08:06:22.420Z,14.13
2019-06-20T08:08:53.826Z,13.88
2019-06-20T08:11:22.602Z,14.13
2019-06-20T08:13:51.515Z,14.47
2019-06-20T08:16:20.522Z,15.30
2019-06-20T08:18:52.542Z,14.45
2019-06-20T08:21:23.070Z,15.00
2019-06-20T08:23:51.863Z,14.80
2019-06-20T08:26:22.289Z,14.45
2019-06-20T08:31:20.691Z,14.15
2019-06-20T08:33:49.442Z,14.70
2019-06-20T08:36:19.599Z,14.50
2019-06-20T08:38:48.589Z,15.03
2019-06-20T08:41:17.490Z,15.00
2019-06-20T08:43:46.252Z,14.98
2019-06-20T08:46:15.222Z,15.20
2019-06-20T08:48:44.139Z,16.02
2019-06-20T08:51:14.828Z,16.05
2019-06-20T08:53:43.789Z,15.88
2019-06-20T08:56:13.610Z,15.50
2019-06-20T08:58:42.329Z,15.70
2019-06-20T09:01:11.162Z,15.43
2019-06-20T09:03:40.378Z,15.43
2019-06-20T09:06:09.248Z,15.50
2019-06-20T09:08:38.050Z,15.93
2019-06-20T09:11:06.960Z,15.58
2019-06-20T09:13:35.743Z,15.45
2019-06-20T09:16:05.940Z,15.60
2019-06-20T09:18:34.839Z,15.58
2019-06-20T09:21:03.709Z,14.78
2019-06-20T09:23:35.630Z,15.05
2019-06-20T09:26:03.898Z,15.35
2019-06-20T09:28:32.889Z,15.28
2019-06-20T09:31:03.997Z,15.13
2019-06-20T09:33:34.638Z,15.13
2019-06-20T09:36:04.349Z,15.45
2019-06-20T09:38:33.840Z,15.28
2019-06-20T09:41:03.462Z,15.80
2019-06-20T09:43:33.979Z,15.20
2019-06-20T09:46:02.761Z,16.32
2019-06-20T09:48:33.091Z,15.30
2019-06-20T09:51:01.880Z,15.48
2019-06-20T09:53:30.659Z,15.63
2019-06-20T09:55:59.451Z,15.63
2019-06-20T09:58:29.880Z,15.78
2019-06-20T10:03:26.875Z,15.43
2019-06-20T10:05:56.703Z,15.43
2019-06-20T10:08:25.878Z,16.62
2019-06-20T10:10:56.179Z,15.75
2019-06-20T10:15:53.537Z,15.65
2019-06-20T10:18:22.455Z,15.83
2019-06-20T10:20:51.320Z,15.85
2019-06-20T10:23:20.287Z,16.70
2019-06-20T10:25:49.307Z,15.85
2019-06-20T10:28:18.603Z,16.02
2019-06-20T10:30:47.341Z,16.02
2019-06-20T10:33:16.181Z,17.48
2019-06-20T10:35:45.838Z,19.12
2019-06-20T10:40:44.772Z,17.73
2019-06-20T10:45:44.079Z,16.48
2019-06-20T10:50:43.896Z,16.85
2019-06-20T10:53:12.850Z,16.62
2019-06-20T10:55:43.230Z,15.95
2019-06-20T10:58:12.169Z,17.20
2019-06-20T11:00:43.385Z,16.27
2019-06-20T11:03:13.037Z,16.35
2019-06-20T11:05:42.305Z,16.10
2019-06-20T11:10:43.610Z,15.20
2019-06-20T11:13:13.005Z,15.15
2019-06-20T11:15:42.228Z,15.75
2019-06-20T11:18:11.389Z,15.40
2019-06-20T11:20:41.052Z,14.73
2019-06-20T11:25:40.178Z,14.83
2019-06-20T11:30:52.645Z,14.83
2019-06-20T11:33:07.491Z,15.10
2019-06-20T11:35:37.728Z,15.38
2019-06-20T11:40:36.214Z,15.43
2019-06-20T11:45:36.048Z,15.20
2019-06-20T11:48:05.274Z,15.65
2019-06-20T11:50:34.909Z,16.45
2019-06-20T11:55:32.490Z,15.78
2019-06-20T11:58:01.328Z,16.17
2019-06-20T12:00:30.629Z,15.85
2019-06-20T12:02:59.439Z,16.25
2019-06-20T12:05:28.179Z,16.02
2019-06-20T12:07:57.169Z,15.10
2019-06-20T12:10:26.078Z,16.25
2019-06-20T12:12:54.858Z,15.53
2019-06-20T12:15:24.066Z,15.55
2019-06-20T12:17:53.676Z,15.13
2019-06-20T12:20:22.469Z,14.77
2019-06-20T12:22:51.145Z,14.83
2019-06-20T12:25:20.059Z,15.38
2019-06-20T12:27:49.708Z,15.43
2019-06-20T12:30:19.904Z,15.95
2019-06-20T12:32:49.392Z,15.30
2019-06-20T12:35:18.502Z,14.93
2019-06-20T12:37:50.051Z,15.00
2019-06-20T12:40:19.209Z,15.10
2019-06-20T12:42:49.344Z,14.80
2019-06-20T12:47:46.566Z,14.65
2019-06-20T12:50:15.398Z,14.93
2019-06-20T12:52:45.409Z,15.15
2019-06-20T12:57:44.444Z,14.55
2019-06-20T13:02:43.725Z,14.38
2019-06-20T13:05:15.938Z,14.40
2019-06-20T13:07:45.017Z,14.78
2019-06-20T13:12:46.196Z,14.60
2019-06-20T13:15:15.459Z,15.03
2019-06-20T13:17:46.803Z,14.78
2019-06-20T13:20:15.888Z,14.78
2019-06-20T13:22:44.923Z,14.98
2019-06-20T13:25:17.999Z,15.15
2019-06-20T13:27:47.828Z,15.63
2019-06-20T13:30:16.823Z,15.55
2019-06-20T13:32:46.984Z,14.65
2019-06-20T13:37:45.765Z,13.50
2019-06-20T13:40:16.367Z,13.38
2019-06-20T13:42:46.164Z,13.30
2019-06-20T13:45:21.983Z,13.93
2019-06-20T13:47:50.808Z,13.18
2019-06-20T13:50:21.961Z,14.40
2019-06-20T13:52:51.363Z,13.62
2019-06-20T13:55:22.408Z,13.25
2019-06-20T13:57:52.829Z,13.95
2019-06-20T14:02:51.550Z,13.60
2019-06-20T14:05:20.838Z,14.43
2019-06-20T14:07:53.189Z,14.28
2019-06-20T14:12:49.658Z,13.68
2019-06-20T14:15:16.550Z,13.22
2019-06-20T14:17:44.816Z,13.22
2019-06-20T14:20:13.608Z,13.08
2019-06-20T14:22:41.420Z,13.48
2019-06-20T14:25:09.189Z,12.95
2019-06-20T14:27:36.039Z,13.43
2019-06-20T14:30:09.180Z,13.83
2019-06-20T14:32:35.879Z,13.78
2019-06-20T14:35:04.658Z,13.70
2019-06-20T14:37:31.589Z,13.15
2019-06-20T14:39:59.610Z,12.93
2019-06-20T14:42:26.428Z,12.55
2019-06-20T14:44:54.219Z,12.95
2019-06-20T14:47:21.419Z,12.68
2019-06-20T14:49:48.319Z,13.15
2019-06-20T14:52:16.541Z,13.70
2019-06-20T14:54:44.500Z,12.58
2019-06-20T14:57:12.188Z,13.05
2019-06-20T14:59:39.025Z,12.53
2019-06-20T15:02:06.087Z,12.10
2019-06-20T15:04:33.117Z,12.00
2019-06-20T15:07:00.158Z,11.78
2019-06-20T15:09:26.917Z,12.60
2019-06-20T15:11:54.963Z,11.90
2019-06-20T15:14:22.119Z,12.30
2019-06-20T15:16:49.498Z,12.00
2019-06-20T15:19:16.430Z,11.20
2019-06-20T15:21:43.256Z,11.70
2019-06-20T15:24:10.049Z,11.08
2019-06-20T15:26:37.055Z,11.22
2019-06-20T15:29:06.223Z,10.80
2019-06-20T15:31:34.726Z,10.82
2019-06-20T15:34:01.798Z,10.63
2019-06-20T15:36:28.632Z,10.25
2019-06-20T15:38:55.438Z,10.18
2019-06-20T15:41:22.508Z,9.80
2019-06-20T15:43:49.872Z,9.70
2019-06-20T15:46:18.870Z,10.13
2019-06-20T15:48:45.799Z,9.83
2019-06-20T15:51:12.598Z,9.80
2019-06-20T15:53:39.950Z,10.23
2019-06-20T15:56:07.879Z,10.53
2019-06-20T15:58:34.830Z,10.28
2019-06-20T16:01:01.678Z,10.23
2019-06-20T16:03:29.923Z,11.45
2019-06-20T16:05:57.005Z,10.10
2019-06-20T16:08:24.034Z,10.28
2019-06-20T16:10:51.285Z,10.03
2019-06-20T16:13:20.493Z,9.18
2019-06-20T16:15:47.830Z,9.45
2019-06-20T16:18:15.660Z,9.38
2019-06-20T16:20:42.551Z,8.80
2019-06-20T16:23:09.479Z,9.20
2019-06-20T16:25:36.429Z,9.00
2019-06-20T16:28:03.288Z,8.98
2019-06-20T16:30:33.552Z,9.10
2019-06-20T16:32:58.801Z,9.33
2019-06-20T16:35:27.278Z,8.75
2019-06-20T16:37:54.059Z,9.28
2019-06-20T16:40:33.498Z,9.58
2019-06-20T16:43:00.330Z,8.83
2019-06-20T16:45:27.082Z,8.93
2019-06-20T16:47:53.989Z,9.10
2019-06-20T16:50:22.272Z,8.00
2019-06-20T16:52:49.098Z,8.40
2019-06-20T16:55:16.109Z,8.80
2019-06-20T16:57:42.963Z,9.18
2019-06-20T17:00:10.039Z,9.35
2019-06-20T17:02:36.999Z,9.00
2019-06-20T17:05:05.280Z,8.83
2019-06-20T17:07:32.212Z,8.63
2019-06-20T17:09:59.158Z,9.28
2019-06-20T17:12:25.958Z,9.13
2019-06-20T17:14:52.873Z,8.75
2019-06-20T17:17:21.458Z,8.48
2019-06-20T17:19:48.279Z,9.00
2019-06-20T17:22:15.219Z,9.18
2019-06-20T17:24:42.165Z,9.48
2019-06-20T17:27:09.107Z,9.13
2019-06-20T17:29:36.058Z,10.10
2019-06-20T17:32:04.324Z,9.60
2019-06-20T17:34:31.325Z,8.65
2019-06-20T17:36:58.178Z,8.95
2019-06-20T17:39:25.059Z,9.45
2019-06-20T17:41:55.423Z,8.78
2019-06-20T17:44:20.599Z,9.48
2019-06-20T17:46:47.409Z,9.58
2019-06-20T17:49:14.269Z,9.85
2019-06-20T17:51:41.179Z,10.50
2019-06-20T17:54:07.928Z,9.73
2019-06-20T17:56:35.049Z,9.53
2019-06-20T17:59:01.962Z,10.30
2019-06-20T18:01:28.899Z,10.43
2019-06-20T18:03:55.838Z,10.35
2019-06-20T18:06:22.799Z,11.05
2019-06-20T18:08:49.672Z,11.18
2019-06-20T18:11:16.469Z,10.13
2019-06-20T18:13:43.410Z,10.50
2019-06-20T18:16:24.142Z,10.90
2019-06-20T18:18:38.938Z,11.12
2019-06-20T18:21:05.828Z,10.72
2019-06-20T18:23:34.838Z,10.88
2019-06-20T18:26:01.753Z,12.18
2019-06-20T18:28:29.229Z,11.20
2019-06-20T18:30:56.068Z,10.93
2019-06-20T18:33:23.479Z,11.25
2019-06-20T18:35:50.278Z,10.10
2019-06-20T18:38:17.278Z,10.65
2019-06-20T18:40:45.032Z,11.28
2019-06-20T18:43:11.988Z,11.73
2019-06-20T18:45:38.928Z,10.95
2019-06-20T18:48:05.776Z,10.98
2019-06-20T18:50:32.817Z,10.82
2019-06-20T18:52:59.678Z,11.50
2019-06-20T18:55:26.499Z,11.33
2019-06-20T18:57:53.355Z,11.18
2019-06-20T19:00:34.030Z,11.65
2019-06-20T19:02:51.429Z,12.30
2019-06-20T19:05:20.129Z,12.43
2019-06-20T19:07:47.069Z,12.23
2019-06-20T19:10:15.257Z,12.13
2019-06-20T19:12:42.489Z,12.58
2019-06-20T19:15:09.378Z,12.18
2019-06-20T19:17:36.288Z,11.95
2019-06-20T19:20:04.758Z,12.70
2019-06-20T19:22:31.698Z,11.73
2019-06-20T19:24:58.869Z,11.80
2019-06-20T19:27:25.799Z,12.65
2019-06-20T19:29:52.588Z,12.18
2019-06-20T19:32:20.122Z,12.35
2019-06-20T19:35:00.879Z,11.88
2019-06-20T19:37:15.730Z,12.50
2019-06-20T19:39:42.586Z,12.05
2019-06-20T19:42:09.418Z,12.30
2019-06-20T19:44:36.730Z,13.50
2019-06-20T19:47:03.480Z,12.53
2019-06-20T19:49:30.349Z,13.18
2019-06-20T19:51:57.308Z,14.80
2019-06-20T19:54:24.261Z,14.10
2019-06-20T19:56:51.711Z,13.43
2019-06-20T19:59:18.649Z,13.78
2019-06-20T20:01:48.378Z,13.10
2019-06-20T20:04:25.561Z,13.80
2019-06-20T20:06:52.730Z,13.50
2019-06-20T20:09:19.589Z,13.25
2019-06-20T20:11:46.346Z,13.15
2019-06-20T20:14:13.223Z,13.30
2019-06-20T20:16:40.166Z,13.45
2019-06-20T20:19:07.018Z,13.45
2019-06-20T20:21:35.798Z,13.53
2019-06-20T20:24:02.638Z,13.32
2019-06-20T20:26:29.602Z,13.88
2019-06-20T20:28:56.529Z,13.13
2019-06-20T20:31:23.579Z,12.80
2019-06-20T20:33:50.529Z,13.68
2019-06-20T20:36:24.928Z,12.78
2019-06-20T20:38:46.048Z,13.10
2019-06-20T20:41:13.001Z,13.83
2019-06-20T20:43:39.847Z,13.20
2019-06-20T20:46:06.783Z,13.18
2019-06-20T20:48:34.759Z,13.95
2019-06-20T20:51:01.602Z,13.80
2019-06-20T20:53:28.411Z,13.10
2019-06-20T20:55:55.288Z,12.90
2019-06-20T20:58:22.028Z,12.88
2019-06-20T21:00:55.228Z,13.53
2019-06-20T21:03:22.268Z,12.50
2019-06-20T21:05:51.745Z,13.28
2019-06-20T21:08:17.626Z,13.05
2019-06-20T21:10:44.938Z,13.30
2019-06-20T21:13:11.778Z,13.62
2019-06-20T21:15:38.628Z,12.95
2019-06-20T21:18:05.417Z,13.50
2019-06-20T21:20:32.311Z,13.00
2019-06-20T21:22:59.249Z,13.30
2019-06-20T21:25:26.208Z,13.15
2019-06-20T21:27:53.178Z,12.43
2019-06-20T21:30:20.096Z,12.35
2019-06-20T21:33:18.468Z,12.58
2019-06-20T21:35:45.319Z,11.12
2019-06-20T21:38:13.968Z,12.05
2019-06-20T21:40:40.843Z,12.15
2019-06-20T21:43:07.788Z,11.97
2019-06-20T21:45:34.648Z,10.60
2019-06-20T21:48:03.009Z,10.58
2019-06-20T21:50:33.667Z,10.93
2019-06-20T21:53:02.266Z,11.40
2019-06-20T21:55:29.818Z,10.08
2019-06-20T21:57:58.588Z,10.43
2019-06-20T22:00:38.830Z,9.33
2019-06-20T22:03:08.077Z,8.78
2019-06-20T22:05:35.384Z,9.65
2019-06-20T22:08:02.229Z,9.08
2019-06-20T22:10:29.179Z,9.35
2019-06-20T22:12:56.121Z,9.40
2019-06-20T22:15:22.909Z,9.40
2019-06-20T22:17:49.712Z,9.40
2019-06-20T22:20:16.999Z,9.15
2019-06-20T22:22:43.809Z,9.05
2019-06-20T22:25:10.679Z,8.75
2019-06-20T22:27:37.509Z,9.55
2019-06-20T22:30:08.070Z,7.95
2019-06-20T22:35:01.555Z,8.58
2019-06-20T22:37:28.299Z,8.20
2019-06-20T22:39:56.619Z,8.18
2019-06-20T22:42:25.292Z,8.08
2019-06-20T22:44:52.158Z,7.87
2019-06-20T22:47:18.979Z,7.97
2019-06-20T22:49:45.928Z,8.08
2019-06-20T22:52:14.673Z,7.50
2019-06-20T22:54:41.458Z,8.08
2019-06-20T22:57:08.299Z,8.33
2019-06-20T22:59:35.239Z,7.37
2019-06-20T23:02:03.931Z,8.18
2019-06-20T23:04:30.767Z,7.53
2019-06-20T23:06:57.549Z,7.65
2019-06-20T23:09:27.133Z,7.25
2019-06-20T23:11:52.939Z,6.92
2019-06-20T23:14:19.886Z,8.03
2019-06-20T23:16:46.769Z,7.92
2019-06-20T23:19:13.488Z,7.72
2019-06-20T23:21:40.309Z,7.70
2019-06-20T23:24:07.268Z,7.90
2019-06-20T23:26:37.168Z,7.30
2019-06-20T23:29:23.168Z,7.25
2019-06-20T23:31:52.238Z,6.90
2019-06-20T23:34:18.999Z,7.25
2019-06-20T23:36:45.839Z,7.50
2019-06-20T23:39:12.786Z,7.58
2019-06-20T23:41:39.629Z,7.33
2019-06-20T23:44:06.470Z,7.70
2019-06-20T23:46:33.350Z,7.55
2019-06-20T23:49:00.160Z,7.10
2019-06-20T23:51:28.848Z,7.20
2019-06-20T23:53:55.678Z,7.12
2019-06-20T23:56:22.628Z,7.20
2019-06-20T23:58:49.497Z,7.72
